sensor_id;sensor_type;location;lat;lon;timestamp;P1;durP1;ratioP1;P2;durP2;ratioP2
43835;SDS011;39345;43.964;25.340;2023-11-19T00:01:00;5.15;;;3.20;;
43835;SDS011;39345;43.964;25.340;2023-11-19T00:03:27;5.32;;;3.35;;
43835;SDS011;39345;43.964;25.340;2023-11-19T00:05:55;4.50;;;3.00;;
43835;SDS011;39345;43.964;25.340;2023-11-19T00:08:22;5.18;;;3.20;;
43835;SDS011;39345;43.964;25.340;2023-11-19T00:10:51;6.20;;;3.35;;
43835;SDS011;39345;43.964;25.340;2023-11-19T00:13:18;6.43;;;3.47;;
43835;SDS011;39345;43.964;25.340;2023-11-19T00:15:46;5.38;;;3.38;;
43835;SDS011;39345;43.964;25.340;2023-11-19T00:18:14;5.80;;;3.88;;
43835;SDS011;39345;43.964;25.340;2023-11-19T00:20:42;8.50;;;3.78;;
43835;SDS011;39345;43.964;25.340;2023-11-19T00:23:11;6.47;;;3.80;;
43835;SDS011;39345;43.964;25.340;2023-11-19T00:25:38;6.53;;;4.13;;
43835;SDS011;39345;43.964;25.340;2023-11-19T00:28:06;6.15;;;4.32;;
43835;SDS011;39345;43.964;25.340;2023-11-19T00:30:35;6.63;;;3.63;;
43835;SDS011;39345;43.964;25.340;2023-11-19T00:33:02;6.93;;;4.32;;
43835;SDS011;39345;43.964;25.340;2023-11-19T00:35:30;6.40;;;4.07;;
43835;SDS011;39345;43.964;25.340;2023-11-19T00:37:58;6.53;;;3.42;;
43835;SDS011;39345;43.964;25.340;2023-11-19T00:40:25;6.45;;;3.60;;
43835;SDS011;39345;43.964;25.340;2023-11-19T00:42:53;7.38;;;3.80;;
43835;SDS011;39345;43.964;25.340;2023-11-19T00:45:20;8.65;;;3.95;;
43835;SDS011;39345;43.964;25.340;2023-11-19T00:47:48;5.00;;;3.15;;
43835;SDS011;39345;43.964;25.340;2023-11-19T00:50:16;6.88;;;3.70;;
43835;SDS011;39345;43.964;25.340;2023-11-19T00:52:44;5.22;;;3.20;;
43835;SDS011;39345;43.964;25.340;2023-11-19T00:55:14;3.92;;;2.63;;
43835;SDS011;39345;43.964;25.340;2023-11-19T00:57:42;5.13;;;2.97;;
43835;SDS011;39345;43.964;25.340;2023-11-19T01:00:09;5.13;;;2.95;;
43835;SDS011;39345;43.964;25.340;2023-11-19T01:02:47;3.83;;;2.60;;
43835;SDS011;39345;43.964;25.340;2023-11-19T01:05:18;5.38;;;2.30;;
43835;SDS011;39345;43.964;25.340;2023-11-19T01:07:48;3.83;;;2.28;;
43835;SDS011;39345;43.964;25.340;2023-11-19T01:10:17;3.38;;;2.25;;
43835;SDS011;39345;43.964;25.340;2023-11-19T01:12:45;4.05;;;2.00;;
43835;SDS011;39345;43.964;25.340;2023-11-19T01:15:13;2.92;;;1.85;;
43835;SDS011;39345;43.964;25.340;2023-11-19T01:17:42;2.58;;;1.70;;
43835;SDS011;39345;43.964;25.340;2023-11-19T01:20:13;4.32;;;1.88;;
43835;SDS011;39345;43.964;25.340;2023-11-19T01:22:40;3.20;;;1.55;;
43835;SDS011;39345;43.964;25.340;2023-11-19T01:25:08;2.13;;;1.60;;
43835;SDS011;39345;43.964;25.340;2023-11-19T01:27:35;2.35;;;1.70;;
43835;SDS011;39345;43.964;25.340;2023-11-19T01:30:03;2.30;;;1.75;;
43835;SDS011;39345;43.964;25.340;2023-11-19T01:32:32;2.83;;;1.98;;
43835;SDS011;39345;43.964;25.340;2023-11-19T01:34:59;2.42;;;1.70;;
43835;SDS011;39345;43.964;25.340;2023-11-19T01:37:27;2.85;;;1.73;;
43835;SDS011;39345;43.964;25.340;2023-11-19T01:39:55;2.17;;;1.40;;
43835;SDS011;39345;43.964;25.340;2023-11-19T01:42:25;3.13;;;1.73;;
43835;SDS011;39345;43.964;25.340;2023-11-19T01:44:59;2.38;;;1.70;;
43835;SDS011;39345;43.964;25.340;2023-11-19T01:47:27;1.98;;;1.60;;
43835;SDS011;39345;43.964;25.340;2023-11-19T01:49:56;1.65;;;1.40;;
43835;SDS011;39345;43.964;25.340;2023-11-19T01:52:24;2.55;;;1.52;;
43835;SDS011;39345;43.964;25.340;2023-11-19T01:54:52;2.42;;;1.67;;
43835;SDS011;39345;43.964;25.340;2023-11-19T01:57:21;2.35;;;1.70;;
43835;SDS011;39345;43.964;25.340;2023-11-19T01:59:50;3.20;;;1.70;;
43835;SDS011;39345;43.964;25.340;2023-11-19T02:02:18;3.20;;;1.92;;
43835;SDS011;39345;43.964;25.340;2023-11-19T02:04:49;3.42;;;2.20;;
43835;SDS011;39345;43.964;25.340;2023-11-19T02:07:17;2.65;;;1.80;;
43835;SDS011;39345;43.964;25.340;2023-11-19T02:09:44;2.10;;;1.70;;
43835;SDS011;39345;43.964;25.340;2023-11-19T02:12:12;1.92;;;1.50;;
43835;SDS011;39345;43.964;25.340;2023-11-19T02:14:39;3.08;;;1.98;;
43835;SDS011;39345;43.964;25.340;2023-11-19T02:17:07;2.72;;;1.90;;
43835;SDS011;39345;43.964;25.340;2023-11-19T02:19:52;3.25;;;2.05;;
43835;SDS011;39345;43.964;25.340;2023-11-19T02:22:19;3.53;;;2.10;;
43835;SDS011;39345;43.964;25.340;2023-11-19T02:24:47;4.03;;;2.30;;
43835;SDS011;39345;43.964;25.340;2023-11-19T02:27:21;3.80;;;2.22;;
43835;SDS011;39345;43.964;25.340;2023-11-19T02:29:50;4.95;;;2.40;;
43835;SDS011;39345;43.964;25.340;2023-11-19T02:32:20;4.20;;;2.50;;
43835;SDS011;39345;43.964;25.340;2023-11-19T02:34:47;3.58;;;2.17;;
43835;SDS011;39345;43.964;25.340;2023-11-19T02:37:15;2.90;;;1.98;;
43835;SDS011;39345;43.964;25.340;2023-11-19T02:39:42;3.13;;;2.15;;
43835;SDS011;39345;43.964;25.340;2023-11-19T02:42:10;5.45;;;2.30;;
43835;SDS011;39345;43.964;25.340;2023-11-19T02:44:37;2.60;;;2.05;;
43835;SDS011;39345;43.964;25.340;2023-11-19T02:47:05;4.43;;;2.30;;
43835;SDS011;39345;43.964;25.340;2023-11-19T02:49:34;3.35;;;2.00;;
43835;SDS011;39345;43.964;25.340;2023-11-19T02:52:03;3.53;;;2.10;;
43835;SDS011;39345;43.964;25.340;2023-11-19T02:54:33;2.75;;;1.88;;
43835;SDS011;39345;43.964;25.340;2023-11-19T02:57:01;2.65;;;2.03;;
43835;SDS011;39345;43.964;25.340;2023-11-19T02:59:31;2.55;;;1.80;;
43835;SDS011;39345;43.964;25.340;2023-11-19T03:02:07;3.67;;;1.92;;
43835;SDS011;39345;43.964;25.340;2023-11-19T03:04:38;2.97;;;1.80;;
43835;SDS011;39345;43.964;25.340;2023-11-19T03:07:06;3.60;;;2.42;;
43835;SDS011;39345;43.964;25.340;2023-11-19T03:09:34;5.22;;;2.10;;
43835;SDS011;39345;43.964;25.340;2023-11-19T03:12:01;3.67;;;2.10;;
43835;SDS011;39345;43.964;25.340;2023-11-19T03:14:30;3.05;;;1.98;;
43835;SDS011;39345;43.964;25.340;2023-11-19T03:17:01;3.22;;;2.20;;
43835;SDS011;39345;43.964;25.340;2023-11-19T03:19:30;3.28;;;2.08;;
43835;SDS011;39345;43.964;25.340;2023-11-19T03:21:57;3.13;;;2.25;;
43835;SDS011;39345;43.964;25.340;2023-11-19T03:24:26;3.30;;;2.00;;
43835;SDS011;39345;43.964;25.340;2023-11-19T03:26:53;3.78;;;1.95;;
43835;SDS011;39345;43.964;25.340;2023-11-19T03:29:21;3.15;;;1.90;;
43835;SDS011;39345;43.964;25.340;2023-11-19T03:31:49;2.55;;;1.90;;
43835;SDS011;39345;43.964;25.340;2023-11-19T03:34:17;2.80;;;1.90;;
43835;SDS011;39345;43.964;25.340;2023-11-19T03:36:45;3.15;;;1.70;;
43835;SDS011;39345;43.964;25.340;2023-11-19T03:39:12;2.53;;;1.80;;
43835;SDS011;39345;43.964;25.340;2023-11-19T03:41:40;3.70;;;1.85;;
43835;SDS011;39345;43.964;25.340;2023-11-19T03:44:08;2.53;;;1.80;;
43835;SDS011;39345;43.964;25.340;2023-11-19T03:46:35;2.58;;;1.92;;
43835;SDS011;39345;43.964;25.340;2023-11-19T03:49:03;3.95;;;2.17;;
43835;SDS011;39345;43.964;25.340;2023-11-19T03:51:33;3.35;;;2.30;;
43835;SDS011;39345;43.964;25.340;2023-11-19T03:54:01;4.18;;;2.60;;
43835;SDS011;39345;43.964;25.340;2023-11-19T03:56:28;3.05;;;2.30;;
43835;SDS011;39345;43.964;25.340;2023-11-19T03:58:58;2.90;;;2.05;;
43835;SDS011;39345;43.964;25.340;2023-11-19T04:01:25;3.50;;;2.28;;
43835;SDS011;39345;43.964;25.340;2023-11-19T04:03:53;3.20;;;2.03;;
43835;SDS011;39345;43.964;25.340;2023-11-19T04:06:22;3.13;;;2.13;;
43835;SDS011;39345;43.964;25.340;2023-11-19T04:08:50;2.90;;;2.10;;
43835;SDS011;39345;43.964;25.340;2023-11-19T04:11:18;2.90;;;1.70;;
43835;SDS011;39345;43.964;25.340;2023-11-19T04:13:45;3.95;;;2.00;;
43835;SDS011;39345;43.964;25.340;2023-11-19T04:16:13;3.60;;;2.30;;
43835;SDS011;39345;43.964;25.340;2023-11-19T04:18:41;3.60;;;2.20;;
43835;SDS011;39345;43.964;25.340;2023-11-19T04:21:08;3.00;;;2.13;;
43835;SDS011;39345;43.964;25.340;2023-11-19T04:23:37;5.53;;;2.35;;
43835;SDS011;39345;43.964;25.340;2023-11-19T04:26:05;3.13;;;2.38;;
43835;SDS011;39345;43.964;25.340;2023-11-19T04:28:36;3.75;;;2.47;;
43835;SDS011;39345;43.964;25.340;2023-11-19T04:31:03;4.25;;;2.50;;
43835;SDS011;39345;43.964;25.340;2023-11-19T04:33:32;4.78;;;2.30;;
43835;SDS011;39345;43.964;25.340;2023-11-19T04:36:00;4.68;;;2.67;;
43835;SDS011;39345;43.964;25.340;2023-11-19T04:38:29;4.85;;;2.72;;
43835;SDS011;39345;43.964;25.340;2023-11-19T04:40:57;4.20;;;2.30;;
43835;SDS011;39345;43.964;25.340;2023-11-19T04:43:24;4.28;;;2.63;;
43835;SDS011;39345;43.964;25.340;2023-11-19T04:45:52;4.00;;;2.92;;
43835;SDS011;39345;43.964;25.340;2023-11-19T04:48:20;3.65;;;2.35;;
43835;SDS011;39345;43.964;25.340;2023-11-19T04:50:47;4.40;;;2.75;;
43835;SDS011;39345;43.964;25.340;2023-11-19T04:53:15;4.28;;;2.50;;
43835;SDS011;39345;43.964;25.340;2023-11-19T04:55:43;3.10;;;2.30;;
43835;SDS011;39345;43.964;25.340;2023-11-19T04:58:11;3.63;;;2.30;;
43835;SDS011;39345;43.964;25.340;2023-11-19T05:00:38;4.15;;;2.55;;
43835;SDS011;39345;43.964;25.340;2023-11-19T05:03:06;4.13;;;2.60;;
43835;SDS011;39345;43.964;25.340;2023-11-19T05:05:34;3.67;;;2.30;;
43835;SDS011;39345;43.964;25.340;2023-11-19T05:08:02;2.97;;;2.25;;
43835;SDS011;39345;43.964;25.340;2023-11-19T05:10:29;3.78;;;2.67;;
43835;SDS011;39345;43.964;25.340;2023-11-19T05:12:57;3.38;;;2.22;;
43835;SDS011;39345;43.964;25.340;2023-11-19T05:15:24;4.60;;;2.50;;
43835;SDS011;39345;43.964;25.340;2023-11-19T05:17:52;4.32;;;2.42;;
43835;SDS011;39345;43.964;25.340;2023-11-19T05:20:20;4.45;;;3.00;;
43835;SDS011;39345;43.964;25.340;2023-11-19T05:22:47;4.65;;;3.08;;
43835;SDS011;39345;43.964;25.340;2023-11-19T05:25:15;4.80;;;2.78;;
43835;SDS011;39345;43.964;25.340;2023-11-19T05:27:42;4.15;;;2.70;;
43835;SDS011;39345;43.964;25.340;2023-11-19T05:30:10;4.18;;;2.88;;
43835;SDS011;39345;43.964;25.340;2023-11-19T05:32:38;4.85;;;2.60;;
43835;SDS011;39345;43.964;25.340;2023-11-19T05:35:06;4.15;;;2.60;;
43835;SDS011;39345;43.964;25.340;2023-11-19T05:37:34;4.45;;;2.85;;
43835;SDS011;39345;43.964;25.340;2023-11-19T05:40:02;4.30;;;2.60;;
43835;SDS011;39345;43.964;25.340;2023-11-19T05:42:33;4.70;;;2.97;;
43835;SDS011;39345;43.964;25.340;2023-11-19T05:45:00;5.43;;;3.10;;
43835;SDS011;39345;43.964;25.340;2023-11-19T05:47:28;5.20;;;3.22;;
43835;SDS011;39345;43.964;25.340;2023-11-19T05:49:55;3.80;;;2.60;;
43835;SDS011;39345;43.964;25.340;2023-11-19T05:52:23;5.47;;;2.88;;
43835;SDS011;39345;43.964;25.340;2023-11-19T05:54:50;3.42;;;2.58;;
43835;SDS011;39345;43.964;25.340;2023-11-19T05:57:18;4.72;;;2.80;;
43835;SDS011;39345;43.964;25.340;2023-11-19T05:59:50;3.90;;;2.45;;
43835;SDS011;39345;43.964;25.340;2023-11-19T06:02:18;3.92;;;2.78;;
43835;SDS011;39345;43.964;25.340;2023-11-19T06:04:45;5.53;;;3.38;;
43835;SDS011;39345;43.964;25.340;2023-11-19T06:07:14;4.80;;;3.33;;
43835;SDS011;39345;43.964;25.340;2023-11-19T06:09:42;4.72;;;3.10;;
43835;SDS011;39345;43.964;25.340;2023-11-19T06:12:09;7.60;;;3.38;;
43835;SDS011;39345;43.964;25.340;2023-11-19T06:14:37;3.70;;;2.72;;
43835;SDS011;39345;43.964;25.340;2023-11-19T06:17:04;3.95;;;2.85;;
43835;SDS011;39345;43.964;25.340;2023-11-19T06:19:32;3.58;;;2.75;;
43835;SDS011;39345;43.964;25.340;2023-11-19T06:22:00;6.05;;;3.13;;
43835;SDS011;39345;43.964;25.340;2023-11-19T06:24:28;4.80;;;3.30;;
43835;SDS011;39345;43.964;25.340;2023-11-19T06:26:55;4.57;;;3.00;;
43835;SDS011;39345;43.964;25.340;2023-11-19T06:29:23;5.60;;;3.10;;
43835;SDS011;39345;43.964;25.340;2023-11-19T06:31:51;5.10;;;3.25;;
43835;SDS011;39345;43.964;25.340;2023-11-19T06:34:18;4.60;;;2.95;;
43835;SDS011;39345;43.964;25.340;2023-11-19T06:36:46;7.05;;;3.10;;
43835;SDS011;39345;43.964;25.340;2023-11-19T06:39:15;5.47;;;3.35;;
43835;SDS011;39345;43.964;25.340;2023-11-19T06:41:45;4.53;;;3.00;;
43835;SDS011;39345;43.964;25.340;2023-11-19T06:44:13;5.55;;;3.08;;
43835;SDS011;39345;43.964;25.340;2023-11-19T06:46:40;4.05;;;3.00;;
43835;SDS011;39345;43.964;25.340;2023-11-19T06:49:08;4.50;;;3.22;;
43835;SDS011;39345;43.964;25.340;2023-11-19T06:51:35;4.30;;;2.97;;
43835;SDS011;39345;43.964;25.340;2023-11-19T06:54:08;4.93;;;3.38;;
43835;SDS011;39345;43.964;25.340;2023-11-19T06:56:35;4.85;;;3.33;;
43835;SDS011;39345;43.964;25.340;2023-11-19T06:59:03;4.85;;;3.50;;
43835;SDS011;39345;43.964;25.340;2023-11-19T07:01:34;5.15;;;2.88;;
43835;SDS011;39345;43.964;25.340;2023-11-19T07:04:02;4.53;;;3.40;;
43835;SDS011;39345;43.964;25.340;2023-11-19T07:06:36;5.35;;;3.30;;
43835;SDS011;39345;43.964;25.340;2023-11-19T07:09:04;4.65;;;3.30;;
43835;SDS011;39345;43.964;25.340;2023-11-19T07:11:40;4.10;;;3.35;;
43835;SDS011;39345;43.964;25.340;2023-11-19T07:14:08;4.15;;;3.20;;
43835;SDS011;39345;43.964;25.340;2023-11-19T07:16:35;3.70;;;2.78;;
43835;SDS011;39345;43.964;25.340;2023-11-19T07:19:06;4.53;;;3.50;;
43835;SDS011;39345;43.964;25.340;2023-11-19T07:21:34;5.32;;;3.20;;
43835;SDS011;39345;43.964;25.340;2023-11-19T07:24:04;6.80;;;3.50;;
43835;SDS011;39345;43.964;25.340;2023-11-19T07:26:31;4.75;;;3.28;;
43835;SDS011;39345;43.964;25.340;2023-11-19T07:28:59;5.22;;;3.60;;
43835;SDS011;39345;43.964;25.340;2023-11-19T07:31:28;5.00;;;3.10;;
43835;SDS011;39345;43.964;25.340;2023-11-19T07:33:55;5.32;;;3.30;;
43835;SDS011;39345;43.964;25.340;2023-11-19T07:36:23;4.03;;;3.10;;
43835;SDS011;39345;43.964;25.340;2023-11-19T07:38:51;5.82;;;3.25;;
43835;SDS011;39345;43.964;25.340;2023-11-19T07:41:19;4.53;;;3.50;;
43835;SDS011;39345;43.964;25.340;2023-11-19T07:43:47;4.68;;;3.40;;
43835;SDS011;39345;43.964;25.340;2023-11-19T07:46:16;5.00;;;3.50;;
43835;SDS011;39345;43.964;25.340;2023-11-19T07:48:46;4.93;;;3.50;;
43835;SDS011;39345;43.964;25.340;2023-11-19T07:51:13;4.63;;;3.13;;
43835;SDS011;39345;43.964;25.340;2023-11-19T07:53:41;4.78;;;3.42;;
43835;SDS011;39345;43.964;25.340;2023-11-19T07:56:09;7.22;;;4.00;;
43835;SDS011;39345;43.964;25.340;2023-11-19T07:58:37;5.88;;;3.75;;
43835;SDS011;39345;43.964;25.340;2023-11-19T08:01:04;4.05;;;3.22;;
43835;SDS011;39345;43.964;25.340;2023-11-19T08:03:33;5.60;;;3.65;;
43835;SDS011;39345;43.964;25.340;2023-11-19T08:06:02;5.50;;;3.65;;
43835;SDS011;39345;43.964;25.340;2023-11-19T08:08:29;5.30;;;3.40;;
43835;SDS011;39345;43.964;25.340;2023-11-19T08:10:59;8.43;;;4.03;;
43835;SDS011;39345;43.964;25.340;2023-11-19T08:13:26;5.03;;;3.40;;
43835;SDS011;39345;43.964;25.340;2023-11-19T08:15:54;4.65;;;3.30;;
43835;SDS011;39345;43.964;25.340;2023-11-19T08:18:22;4.78;;;3.30;;
43835;SDS011;39345;43.964;25.340;2023-11-19T08:20:49;5.82;;;3.40;;
43835;SDS011;39345;43.964;25.340;2023-11-19T08:23:20;6.80;;;3.55;;
43835;SDS011;39345;43.964;25.340;2023-11-19T08:25:47;4.85;;;3.60;;
43835;SDS011;39345;43.964;25.340;2023-11-19T08:28:15;6.50;;;3.80;;
43835;SDS011;39345;43.964;25.340;2023-11-19T08:30:42;5.57;;;3.50;;
43835;SDS011;39345;43.964;25.340;2023-11-19T08:33:10;4.95;;;3.65;;
43835;SDS011;39345;43.964;25.340;2023-11-19T08:35:38;5.13;;;3.53;;
43835;SDS011;39345;43.964;25.340;2023-11-19T08:38:05;4.90;;;3.60;;
43835;SDS011;39345;43.964;25.340;2023-11-19T08:40:33;6.10;;;3.60;;
43835;SDS011;39345;43.964;25.340;2023-11-19T08:43:00;6.47;;;3.35;;
43835;SDS011;39345;43.964;25.340;2023-11-19T08:45:28;6.25;;;4.13;;
43835;SDS011;39345;43.964;25.340;2023-11-19T08:47:56;5.05;;;3.85;;
43835;SDS011;39345;43.964;25.340;2023-11-19T08:50:24;6.25;;;3.90;;
43835;SDS011;39345;43.964;25.340;2023-11-19T08:52:52;9.55;;;4.00;;
43835;SDS011;39345;43.964;25.340;2023-11-19T08:55:19;5.75;;;3.92;;
43835;SDS011;39345;43.964;25.340;2023-11-19T08:57:47;4.78;;;3.63;;
43835;SDS011;39345;43.964;25.340;2023-11-19T09:00:15;7.93;;;4.85;;
43835;SDS011;39345;43.964;25.340;2023-11-19T09:02:42;7.75;;;4.40;;
43835;SDS011;39345;43.964;25.340;2023-11-19T09:05:10;6.90;;;4.28;;
43835;SDS011;39345;43.964;25.340;2023-11-19T09:07:39;6.63;;;4.80;;
43835;SDS011;39345;43.964;25.340;2023-11-19T09:10:07;6.72;;;4.45;;
43835;SDS011;39345;43.964;25.340;2023-11-19T09:12:35;7.13;;;4.63;;
43835;SDS011;39345;43.964;25.340;2023-11-19T09:15:03;7.05;;;4.70;;
43835;SDS011;39345;43.964;25.340;2023-11-19T09:17:30;9.43;;;5.28;;
43835;SDS011;39345;43.964;25.340;2023-11-19T09:19:58;6.95;;;5.28;;
43835;SDS011;39345;43.964;25.340;2023-11-19T09:22:25;7.72;;;5.55;;
43835;SDS011;39345;43.964;25.340;2023-11-19T09:24:53;6.65;;;5.03;;
43835;SDS011;39345;43.964;25.340;2023-11-19T09:27:20;5.85;;;4.40;;
43835;SDS011;39345;43.964;25.340;2023-11-19T09:29:48;6.55;;;4.72;;
43835;SDS011;39345;43.964;25.340;2023-11-19T09:32:17;5.93;;;4.80;;
43835;SDS011;39345;43.964;25.340;2023-11-19T09:34:45;6.78;;;4.40;;
43835;SDS011;39345;43.964;25.340;2023-11-19T09:37:13;5.82;;;4.70;;
43835;SDS011;39345;43.964;25.340;2023-11-19T09:39:43;7.22;;;4.93;;
43835;SDS011;39345;43.964;25.340;2023-11-19T09:42:11;8.60;;;4.47;;
43835;SDS011;39345;43.964;25.340;2023-11-19T09:44:39;6.70;;;4.97;;
43835;SDS011;39345;43.964;25.340;2023-11-19T09:47:07;6.88;;;4.50;;
43835;SDS011;39345;43.964;25.340;2023-11-19T09:49:35;6.07;;;4.78;;
43835;SDS011;39345;43.964;25.340;2023-11-19T09:52:03;5.97;;;4.75;;
43835;SDS011;39345;43.964;25.340;2023-11-19T09:54:31;6.35;;;4.55;;
43835;SDS011;39345;43.964;25.340;2023-11-19T09:56:59;5.85;;;4.47;;
43835;SDS011;39345;43.964;25.340;2023-11-19T09:59:30;6.80;;;4.15;;
43835;SDS011;39345;43.964;25.340;2023-11-19T10:01:58;6.82;;;4.30;;
43835;SDS011;39345;43.964;25.340;2023-11-19T10:04:28;6.25;;;4.85;;
43835;SDS011;39345;43.964;25.340;2023-11-19T10:06:57;5.57;;;4.20;;
43835;SDS011;39345;43.964;25.340;2023-11-19T10:09:25;7.32;;;5.30;;
43835;SDS011;39345;43.964;25.340;2023-11-19T10:11:53;6.43;;;4.88;;
43835;SDS011;39345;43.964;25.340;2023-11-19T10:14:22;7.47;;;4.57;;
43835;SDS011;39345;43.964;25.340;2023-11-19T10:16:50;6.88;;;5.00;;
43835;SDS011;39345;43.964;25.340;2023-11-19T10:19:21;7.50;;;5.80;;
43835;SDS011;39345;43.964;25.340;2023-11-19T10:21:49;5.68;;;4.45;;
43835;SDS011;39345;43.964;25.340;2023-11-19T10:24:16;5.38;;;4.22;;
43835;SDS011;39345;43.964;25.340;2023-11-19T10:27:01;6.50;;;4.55;;
43835;SDS011;39345;43.964;25.340;2023-11-19T10:29:31;5.28;;;4.10;;
43835;SDS011;39345;43.964;25.340;2023-11-19T10:31:59;5.90;;;4.25;;
43835;SDS011;39345;43.964;25.340;2023-11-19T10:34:47;6.60;;;3.97;;
43835;SDS011;39345;43.964;25.340;2023-11-19T10:37:27;4.78;;;3.65;;
43835;SDS011;39345;43.964;25.340;2023-11-19T10:39:59;4.15;;;3.50;;
43835;SDS011;39345;43.964;25.340;2023-11-19T10:42:27;5.70;;;3.97;;
43835;SDS011;39345;43.964;25.340;2023-11-19T10:44:54;5.38;;;4.15;;
43835;SDS011;39345;43.964;25.340;2023-11-19T10:47:22;6.30;;;3.95;;
43835;SDS011;39345;43.964;25.340;2023-11-19T10:49:53;6.57;;;4.28;;
43835;SDS011;39345;43.964;25.340;2023-11-19T10:52:20;5.38;;;3.58;;
43835;SDS011;39345;43.964;25.340;2023-11-19T10:54:49;6.57;;;3.78;;
43835;SDS011;39345;43.964;25.340;2023-11-19T10:57:19;5.30;;;3.78;;
43835;SDS011;39345;43.964;25.340;2023-11-19T10:59:49;5.75;;;4.25;;
43835;SDS011;39345;43.964;25.340;2023-11-19T11:02:18;5.07;;;3.92;;
43835;SDS011;39345;43.964;25.340;2023-11-19T11:04:49;4.78;;;4.03;;
43835;SDS011;39345;43.964;25.340;2023-11-19T11:07:17;6.43;;;3.55;;
43835;SDS011;39345;43.964;25.340;2023-11-19T11:09:52;6.20;;;3.40;;
43835;SDS011;39345;43.964;25.340;2023-11-19T11:12:21;5.03;;;3.58;;
43835;SDS011;39345;43.964;25.340;2023-11-19T11:14:50;4.13;;;3.33;;
43835;SDS011;39345;43.964;25.340;2023-11-19T11:17:19;4.90;;;3.17;;
43835;SDS011;39345;43.964;25.340;2023-11-19T11:19:50;4.95;;;3.67;;
43835;SDS011;39345;43.964;25.340;2023-11-19T11:22:17;4.40;;;3.22;;
43835;SDS011;39345;43.964;25.340;2023-11-19T11:25:11;5.63;;;3.60;;
43835;SDS011;39345;43.964;25.340;2023-11-19T11:27:58;7.03;;;3.72;;
43835;SDS011;39345;43.964;25.340;2023-11-19T11:38:11;5.32;;;4.28;;
43835;SDS011;39345;43.964;25.340;2023-11-19T11:40:39;5.78;;;4.28;;
43835;SDS011;39345;43.964;25.340;2023-11-19T11:45:53;5.80;;;4.38;;
43835;SDS011;39345;43.964;25.340;2023-11-19T11:48:20;5.28;;;3.90;;
43835;SDS011;39345;43.964;25.340;2023-11-19T11:50:51;5.30;;;3.80;;
43835;SDS011;39345;43.964;25.340;2023-11-19T11:53:19;5.80;;;3.95;;
43835;SDS011;39345;43.964;25.340;2023-11-19T11:58:18;5.10;;;3.63;;
43835;SDS011;39345;43.964;25.340;2023-11-19T12:00:46;5.80;;;4.15;;
43835;SDS011;39345;43.964;25.340;2023-11-19T12:03:14;6.47;;;4.45;;
43835;SDS011;39345;43.964;25.340;2023-11-19T12:05:42;7.30;;;4.97;;
43835;SDS011;39345;43.964;25.340;2023-11-19T12:08:14;8.02;;;5.32;;
43835;SDS011;39345;43.964;25.340;2023-11-19T12:10:47;5.93;;;4.50;;
43835;SDS011;39345;43.964;25.340;2023-11-19T12:13:15;6.22;;;4.72;;
43835;SDS011;39345;43.964;25.340;2023-11-19T12:18:26;5.32;;;3.90;;
43835;SDS011;39345;43.964;25.340;2023-11-19T12:20:55;7.40;;;4.60;;
43835;SDS011;39345;43.964;25.340;2023-11-19T12:23:22;6.65;;;4.30;;
43835;SDS011;39345;43.964;25.340;2023-11-19T12:25:50;6.45;;;4.85;;
43835;SDS011;39345;43.964;25.340;2023-11-19T12:28:18;6.32;;;4.38;;
43835;SDS011;39345;43.964;25.340;2023-11-19T12:30:46;6.43;;;4.32;;
43835;SDS011;39345;43.964;25.340;2023-11-19T12:33:15;5.97;;;4.18;;
43835;SDS011;39345;43.964;25.340;2023-11-19T12:35:44;7.07;;;4.40;;
43835;SDS011;39345;43.964;25.340;2023-11-19T12:38:21;5.72;;;4.35;;
43835;SDS011;39345;43.964;25.340;2023-11-19T12:41:04;4.93;;;3.90;;
43835;SDS011;39345;43.964;25.340;2023-11-19T12:43:32;5.55;;;4.25;;
43835;SDS011;39345;43.964;25.340;2023-11-19T12:46:20;6.75;;;4.15;;
43835;SDS011;39345;43.964;25.340;2023-11-19T12:48:48;6.15;;;4.47;;
43835;SDS011;39345;43.964;25.340;2023-11-19T12:51:16;7.00;;;4.95;;
43835;SDS011;39345;43.964;25.340;2023-11-19T12:53:51;8.70;;;5.18;;
43835;SDS011;39345;43.964;25.340;2023-11-19T12:56:22;6.07;;;4.00;;
43835;SDS011;39345;43.964;25.340;2023-11-19T12:58:49;4.85;;;4.00;;
43835;SDS011;39345;43.964;25.340;2023-11-19T13:01:17;6.45;;;4.97;;
43835;SDS011;39345;43.964;25.340;2023-11-19T13:03:46;6.95;;;4.60;;
43835;SDS011;39345;43.964;25.340;2023-11-19T13:06:15;6.07;;;4.63;;
43835;SDS011;39345;43.964;25.340;2023-11-19T13:11:12;6.60;;;4.68;;
43835;SDS011;39345;43.964;25.340;2023-11-19T13:13:59;6.32;;;4.97;;
43835;SDS011;39345;43.964;25.340;2023-11-19T13:16:27;6.72;;;4.90;;
43835;SDS011;39345;43.964;25.340;2023-11-19T13:18:55;8.18;;;5.82;;
43835;SDS011;39345;43.964;25.340;2023-11-19T13:21:23;6.85;;;4.72;;
43835;SDS011;39345;43.964;25.340;2023-11-19T13:23:51;5.53;;;4.30;;
43835;SDS011;39345;43.964;25.340;2023-11-19T13:26:18;6.97;;;4.70;;
43835;SDS011;39345;43.964;25.340;2023-11-19T13:28:46;8.00;;;4.97;;
43835;SDS011;39345;43.964;25.340;2023-11-19T13:31:13;7.30;;;4.63;;
43835;SDS011;39345;43.964;25.340;2023-11-19T13:33:41;5.97;;;4.55;;
43835;SDS011;39345;43.964;25.340;2023-11-19T13:36:09;7.57;;;4.95;;
43835;SDS011;39345;43.964;25.340;2023-11-19T13:38:41;8.27;;;4.60;;
43835;SDS011;39345;43.964;25.340;2023-11-19T13:41:11;6.82;;;4.72;;
43835;SDS011;39345;43.964;25.340;2023-11-19T13:43:39;8.00;;;4.85;;
43835;SDS011;39345;43.964;25.340;2023-11-19T13:46:06;7.43;;;5.28;;
43835;SDS011;39345;43.964;25.340;2023-11-19T13:48:37;7.72;;;4.80;;
43835;SDS011;39345;43.964;25.340;2023-11-19T13:51:05;6.97;;;4.78;;
43835;SDS011;39345;43.964;25.340;2023-11-19T13:53:33;6.38;;;4.70;;
43835;SDS011;39345;43.964;25.340;2023-11-19T13:56:03;6.20;;;4.45;;
43835;SDS011;39345;43.964;25.340;2023-11-19T13:58:31;8.25;;;5.03;;
43835;SDS011;39345;43.964;25.340;2023-11-19T14:00:58;6.70;;;4.85;;
43835;SDS011;39345;43.964;25.340;2023-11-19T14:03:26;6.38;;;4.80;;
43835;SDS011;39345;43.964;25.340;2023-11-19T14:05:54;6.90;;;5.20;;
43835;SDS011;39345;43.964;25.340;2023-11-19T14:08:21;7.43;;;5.13;;
43835;SDS011;39345;43.964;25.340;2023-11-19T14:10:51;7.53;;;5.30;;
43835;SDS011;39345;43.964;25.340;2023-11-19T14:13:22;7.03;;;5.15;;
43835;SDS011;39345;43.964;25.340;2023-11-19T14:15:50;7.85;;;5.07;;
43835;SDS011;39345;43.964;25.340;2023-11-19T14:18:18;7.90;;;5.05;;
43835;SDS011;39345;43.964;25.340;2023-11-19T14:20:46;6.55;;;5.07;;
43835;SDS011;39345;43.964;25.340;2023-11-19T14:23:13;6.85;;;5.45;;
43835;SDS011;39345;43.964;25.340;2023-11-19T14:25:41;8.38;;;5.30;;
43835;SDS011;39345;43.964;25.340;2023-11-19T14:28:08;6.75;;;5.13;;
43835;SDS011;39345;43.964;25.340;2023-11-19T14:30:36;6.65;;;4.65;;
43835;SDS011;39345;43.964;25.340;2023-11-19T14:33:04;6.95;;;5.00;;
43835;SDS011;39345;43.964;25.340;2023-11-19T14:35:32;7.47;;;5.50;;
43835;SDS011;39345;43.964;25.340;2023-11-19T14:38:00;7.95;;;5.78;;
43835;SDS011;39345;43.964;25.340;2023-11-19T14:40:31;9.85;;;5.90;;
43835;SDS011;39345;43.964;25.340;2023-11-19T14:43:02;8.32;;;5.72;;
43835;SDS011;39345;43.964;25.340;2023-11-19T14:45:30;9.23;;;5.57;;
43835;SDS011;39345;43.964;25.340;2023-11-19T14:48:07;9.80;;;5.85;;
43835;SDS011;39345;43.964;25.340;2023-11-19T14:50:36;6.65;;;5.57;;
43835;SDS011;39345;43.964;25.340;2023-11-19T14:53:04;8.02;;;5.93;;
43835;SDS011;39345;43.964;25.340;2023-11-19T14:55:31;8.55;;;5.95;;
43835;SDS011;39345;43.964;25.340;2023-11-19T14:57:59;7.50;;;5.50;;
43835;SDS011;39345;43.964;25.340;2023-11-19T15:00:35;7.07;;;5.88;;